Parsons, KS (67357)

3:09 AM CST on February 08, 2016 (GMT -0600)
West Parsons | | Change Station
CLOSE
Current Station
Personal Weather Station
Location: Parsons, KS
Elevation: 909 ft
Nearby Weather Stations
Active Advisory: Wind Advisory

Elev 909 ft 37.34 °N, 95.29 °W | Updated 1 second ago

Clear
Clear
36.7 °F
Feels Like 30 °F
N
9.6
Wind Variable Wind from NNW
Gusts 12.3 mph

Today
High -- | Low -- °F
--% Chance of Precip.
Yesterday
High -- | Low -- °F
Precip. -- in
Pressure 30.12 in
Visibility 10.0 miles
Clouds Clear
Windchill 30 °F
Dew Point 18 °F
Humidity 47%
Rainfall 0.00 in
Snow Depth Not available.
7:18 AM 5:52 PM
Waning Crescent, 0% visible
METAR KPPF 080852Z AUTO 31017G25KT 10SM CLR 03/M07 A3011 RMK AO2 SLP197 T00281072 56005
Pressure 30.12 in
Visibility 10.0 miles
Clouds Clear
Windchill 30 °F
Dew Point 18 °F
Humidity 47%
Rainfall 0.00 in
Snow Depth Not available.
7:18 AM 5:52 PM
Waning Crescent, 0% visible
METAR KPPF 080852Z AUTO 31017G25KT 10SM CLR 03/M07 A3011 RMK AO2 SLP197 T00281072 56005

10-Day Weather Forecast

Almanac

Astronomy

Feb. 08, 2016 Rise Set
Actual Time
Civil Twilight
Nautical Twilight
Astronomical Twilight
Moon
Length of Visible Light
Length of Day
Tomorrow will be .
, % of the Moon is Illuminated

Today's Extremes

State Highs State Lows

Community

WunderPhotos

Upload Photos

1,891,412 photos uploaded!

WunderBlog® & News

Nearby

Air Quality

  Air Quality AQ Index Pollutant
Not available.

Snow Depth

Station Depth Elevation

Earthquake Activity

City Distance Mag. Time & Date
Minimum magnitude displayed is 2.5.

Coastal Water Temperatures

Place Temperature

Stations

Nearby Weather Stations

Station Location Temp. Windchill Dew Point Humidity Wind Precip. Elev Updated Type
                   

Watches & Warnings

Wind Advisory
Issued: 6:53 PM CST Feb. 7, 2016 – National Weather Service

... Wind Advisory remains in effect from 9 am to 6 PM CST Monday...

* winds... northwest 25 to 30 mph with gusts up to 45 mph.

* Timing... strong winds will begin to develop during the mid-
morning hours and continue through early evening.

Precautionary/preparedness actions...

A Wind Advisory means that sustained winds of at least 30 mph
and/or wind gusts over 45 mph are expected. Winds this strong
can make driving difficult... especially for high profile
vehicles. Use extra caution.